Time;durP1;ratioP1;P1;durP2;ratioP2;P2;SDS_P1;SDS_P2;PMS_P1;PMS_P2;Temp;Humidity;BMP_temperature;BMP_pressure;BME280_temperature;BME280_humidity;BME280_pressure;Samples;Min_cycle;Max_cycle;Signal;HPM_P1;HPM_P2
2023/10/18 00:00:42;;;;;;;;;;;;;;;11.73;99.59;99871.94;313148;31;676;-78
2023/10/18 00:00:53;;;;;;;;;;;;;;;11.71;99.65;99873.78;311793;31;1283;-78
2023/10/18 00:01:04;;;;;;;;;;;;;;;11.72;99.70;99875.47;306750;31;4487;-77
2023/10/18 00:01:14;;;;;;;;;;;;;;;11.73;99.39;99877.19;310225;31;4624;-77
2023/10/18 00:01:24;;;;;;;;;;;;;;;11.71;99.46;99873.78;311829;31;1305;-77
2023/10/18 00:01:35;;;;;;;;;;;;;;;11.71;99.31;99868.53;309007;31;4350;-77
2023/10/18 00:01:45;;;;;;;;;;;;;;;11.71;99.60;99868.53;310510;31;3781;-77
2023/10/18 00:01:56;;;;;;;;;;;;;;;11.70;99.54;99872.09;311938;31;3065;-77
2023/10/18 00:02:10;;;;;;;;;;;;;;;11.70;99.43;99874.72;306846;32;1251;-77
2023/10/18 00:02:20;;;;;;;;;;;;;;;11.69;99.55;99871.25;305625;32;3787;-77
2023/10/18 00:02:30;;;;;;;;;;;;;;;11.71;99.23;99871.16;303041;32;5114;-77
2023/10/18 00:02:42;;;;;;;;;;;;;;;11.71;99.40;99879.03;301058;32;5314;-77
2023/10/18 00:02:53;;;;;;;;;;;;;;;11.72;99.43;99870.25;303289;32;1122;-77
2023/10/18 00:03:06;;;;;;;;;;;;;;;11.72;99.23;99875.47;297855;32;5966;-77
2023/10/18 00:03:18;;;;;;;;;;;;;;;11.71;99.33;99871.16;298196;32;6529;-77
2023/10/18 00:03:29;;;;;;;;;;;;;;;11.72;99.41;99867.63;297973;32;7197;-77
2023/10/18 00:03:41;;;;;;;;;;;;;;;11.72;99.44;99876.34;297037;33;1464;-77
2023/10/18 00:03:55;;;;;;;;;;;;;;;11.73;99.35;99871.94;292404;33;1296;-78
2023/10/18 00:04:06;;;;;;;;;;;;;;;11.72;99.32;99875.47;292220;33;1400;-78
2023/10/18 00:04:20;;;;;;;;;;;;;;;11.72;99.49;99872.88;290911;33;4064;-77
2023/10/18 00:04:30;;;;;;;;;;;;;;;11.74;99.47;99871.03;289450;33;5414;-77
2023/10/18 00:04:41;;;;;;;;;;;;;;;11.75;99.39;99870.13;284651;33;7286;-77
2023/10/18 00:04:52;;;;;;;;;;;;;;;11.73;99.32;99878.03;287408;34;1260;-77
2023/10/18 00:05:05;;;;;;;;;;;;;;;11.74;99.52;99871.03;285122;34;8462;-77
2023/10/18 00:05:18;;;;;;;;;;;;;;;11.73;99.43;99871.94;284167;34;8468;-77
2023/10/18 00:07:34;;;;;;;;;;;;;;;11.70;99.30;99872.09;2486971;27;19932;-76
2023/10/18 00:07:45;;;;;;;;;;;;;;;11.69;99.29;99867.78;353165;28;1243;-77
2023/10/18 00:07:59;;;;;;;;;;;;;;;11.67;99.30;99870.47;350420;28;1245;-77
2023/10/18 00:08:09;;;;;;;;;;;;;;;11.68;99.51;99873.94;348984;28;1472;-76
2023/10/18 00:08:22;;;;;;;;;;;;;;;11.68;99.42;99873.94;350348;28;1374;-76
2023/10/18 00:08:32;;;;;;;;;;;;;;;11.69;99.67;99873.03;350233;28;1350;-77
2023/10/18 00:08:44;;;;;;;;;;;;;;;11.69;99.56;99875.63;349069;28;1140;-77
2023/10/18 00:08:57;;;;;;;;;;;;;;;11.70;99.58;99872.09;347348;28;1376;-77
2023/10/18 00:09:45;;;;;;;;;;;;;;;11.69;100.00;99875.63;350507;28;857;-77
2023/10/18 00:09:55;;;;;;;;;;;;;;;11.68;100.00;99874.78;350168;28;1280;-77
2023/10/18 00:10:08;;;;;;;;;;;;;;;11.67;100.00;99875.72;349512;28;1227;-77
2023/10/18 00:10:18;;;;;;;;;;;;;;;11.68;100.00;99872.16;347591;28;1224;-77
2023/10/18 00:10:30;;;;;;;;;;;;;;;11.68;100.00;99871.31;347668;28;1508;-77
2023/10/18 00:10:40;;;;;;;;;;;;;;;11.66;100.00;99876.63;347857;28;1118;-77
2023/10/18 00:10:51;;;;;;;;;;;;;;;11.65;100.00;99865.28;347680;28;1429;-77
2023/10/18 00:11:01;;;;;;;;;;;;;;;11.66;100.00;99872.22;346095;28;1192;-77
2023/10/18 00:11:12;;;;;;;;;;;;;;;11.65;100.00;99870.53;348891;28;1418;-77
2023/10/18 00:11:24;;;;;;;;;;;;;;;11.65;100.00;99869.66;347451;28;1271;-77
2023/10/18 00:11:35;;;;;;;;;;;;;;;11.65;100.00;99870.53;344771;28;1313;-77
2023/10/18 00:11:46;;;;;;;;;;;;;;;11.66;100.00;99871.38;348225;28;1216;-76
2023/10/18 00:11:57;;;;;;;;;;;;;;;11.66;100.00;99867.00;348756;28;1231;-76
2023/10/18 00:12:07;;;;;;;;;;;;;;;11.66;100.00;99869.59;346328;28;823;-77
2023/10/18 00:12:18;;;;;;;;;;;;;;;11.67;100.00;99875.72;345748;28;1064;-77
2023/10/18 00:12:28;;;;;;;;;;;;;;;11.65;100.00;99870.53;343411;28;1252;-77
2023/10/18 00:12:39;;;;;;;;;;;;;;;11.66;100.00;99871.38;344942;28;1332;-77
2023/10/18 00:12:52;;;;;;;;;;;;;;;11.68;100.00;99871.31;344970;28;1267;-77
2023/10/18 00:13:03;;;;;;;;;;;;;;;11.68;100.00;99866.06;342151;28;1296;-77
2023/10/18 00:13:13;;;;;;;;;;;;;;;11.68;100.00;99873.94;343036;28;876;-77
2023/10/18 00:13:24;;;;;;;;;;;;;;;11.68;100.00;99872.16;343682;28;1103;-77
2023/10/18 00:13:34;;;;;;;;;;;;;;;11.68;100.00;99873.94;343607;28;1066;-77
2023/10/18 00:13:50;;;;;;;;;;;;;;;11.66;100.00;99866.13;342977;28;1280;-77
2023/10/18 00:14:00;;;;;;;;;;;;;;;11.69;100.00;99870.41;340148;29;1269;-76
2023/10/18 00:14:10;;;;;;;;;;;;;;;11.70;100.00;99877.34;337672;29;1293;-76
2023/10/18 00:14:21;;;;;;;;;;;;;;;11.71;100.00;99871.16;339658;29;1245;-77
2023/10/18 00:14:31;;;;;;;;;;;;;;;11.71;100.00;99873.78;339608;29;894;-78
2023/10/18 00:14:41;;;;;;;;;;;;;;;11.72;100.00;99875.47;339495;29;1380;-78
2023/10/18 00:14:52;;;;;;;;;;;;;;;11.71;100.00;99873.78;338345;29;1374;-77
2023/10/18 00:15:02;;;;;;;;;;;;;;;11.72;100.00;99870.25;340303;29;1124;-77
2023/10/18 00:15:14;;;;;;;;;;;;;;;11.71;100.00;99871.16;340057;28;1533;-77
2023/10/18 00:15:24;;;;;;;;;;;;;;;11.71;100.00;99868.53;338337;29;1342;-77
2023/10/18 00:15:35;;;;;;;;;;;;;;;11.72;100.00;99870.25;339647;29;735;-76
2023/10/18 00:15:45;;;;;;;;;;;;;;;11.73;100.00;99874.56;338679;29;2169;-76
2023/10/18 00:16:01;;;;;;;;;;;;;;;11.72;100.00;99878.09;337921;29;3180;-77
2023/10/18 00:16:12;;;;;;;;;;;;;;;11.71;100.00;99868.53;335214;29;3394;-78
2023/10/18 00:16:23;;;;;;;;;;;;;;;11.71;100.00;99874.63;335550;29;1939;-77
2023/10/18 00:16:34;;;;;;;;;;;;;;;11.72;100.00;99875.47;336736;29;5989;-77
2023/10/18 00:16:44;;;;;;;;;;;;;;;11.71;100.00;99872.00;335635;29;1394;-77
2023/10/18 00:16:55;;;;;;;;;;;;;;;11.72;100.00;99873.72;335267;29;1471;-78
2023/10/18 00:17:05;;;;;;;;;;;;;;;11.70;100.00;99878.16;333151;29;1262;-78
2023/10/18 00:17:15;;;;;;;;;;;;;;;11.70;100.00;99872.09;331976;29;884;-77
2023/10/18 00:17:26;;;;;;;;;;;;;;;11.69;100.00;99873.88;334061;29;1580;-77
2023/10/18 00:17:37;;;;;;;;;;;;;;;11.68;100.00;99868.69;331883;29;890;-77
2023/10/18 00:17:48;;;;;;;;;;;;;;;11.67;100.00;99867.84;330163;29;1242;-77
2023/10/18 00:17:59;;;;;;;;;;;;;;;11.65;100.00;99873.16;331953;29;1540;-77
2023/10/18 00:18:11;;;;;;;;;;;;;;;11.64;100.00;99867.97;329843;29;1902;-77
2023/10/18 00:18:21;;;;;;;;;;;;;;;11.64;100.00;99868.81;328053;30;1736;-77
2023/10/18 00:18:34;;;;;;;;;;;;;;;11.64;100.00;99875.81;327641;30;2129;-77
2023/10/18 00:18:45;;;;;;;;;;;;;;;11.65;100.00;99872.28;324795;30;1353;-77
2023/10/18 00:18:55;;;;;;;;;;;;;;;11.65;100.00;99870.53;323874;30;1274;-76
2023/10/18 00:19:06;;;;;;;;;;;;;;;11.65;100.00;99875.75;325352;30;1452;-77
2023/10/18 00:19:17;;;;;;;;;;;;;;;11.68;100.00;99874.78;327591;30;1396;-77
2023/10/18 00:19:27;;;;;;;;;;;;;;;11.66;100.00;99874.00;326026;30;1538;-77
2023/10/18 00:19:38;;;;;;;;;;;;;;;11.66;100.00;99874.84;326816;30;1212;-77
2023/10/18 00:19:48;;;;;;;;;;;;;;;11.68;100.00;99873.94;323300;30;1331;-77
2023/10/18 00:19:59;;;;;;;;;;;;;;;11.68;100.00;99873.94;322525;30;2118;-77
2023/10/18 00:20:15;;;;;;;;;;;;;;;11.66;100.00;99874.00;319016;30;2120;-77
2023/10/18 00:20:26;;;;;;;;;;;;;;;11.69;100.00;99875.63;317453;31;2507;-77
2023/10/18 00:20:36;;;;;;;;;;;;;;;11.69;100.00;99865.16;316360;31;1186;-77
2023/10/18 00:20:47;;;;;;;;;;;;;;;11.70;100.00;99869.47;315821;31;2618;-76
2023/10/18 00:21:01;;;;;;;;;;;;;;;11.69;100.00;99865.16;315346;31;1590;-76
2023/10/18 00:21:12;;;;;;;;;;;;;;;11.70;100.00;99872.09;316208;31;1038;-76
2023/10/18 00:21:22;;;;;;;;;;;;;;;11.69;100.00;99868.63;315140;31;1352;-76
2023/10/18 00:21:32;;;;;;;;;;;;;;;11.68;100.00;99864.31;310316;31;1881;-76
2023/10/18 00:21:43;;;;;;;;;;;;;;;11.70;100.00;99866.88;308585;31;2369;-76
2023/10/18 00:21:53;;;;;;;;;;;;;;;11.69;100.00;99871.25;308354;31;2990;-77
2023/10/18 00:22:05;;;;;;;;;;;;;;;11.69;100.00;99866.00;311904;31;814;-77
2023/10/18 00:22:15;;;;;;;;;;;;;;;11.69;100.00;99865.16;310928;31;3343;-77
2023/10/18 00:22:25;;;;;;;;;;;;;;;11.71;100.00;99873.78;311379;31;2992;-77
2023/10/18 00:22:38;;;;;;;;;;;;;;;11.71;100.00;99863.28;309940;31;1214;-78
2023/10/18 00:22:48;;;;;;;;;;;;;;;11.72;100.00;99862.38;306499;32;1386;-78
2023/10/18 00:22:58;;;;;;;;;;;;;;;11.72;100.00;99870.25;305021;32;3365;-77
2023/10/18 00:23:10;;;;;;;;;;;;;;;11.71;100.00;99866.75;304070;32;2415;-77
2023/10/18 00:23:22;;;;;;;;;;;;;;;11.72;100.00;99865.84;306560;32;859;-77
2023/10/18 00:23:32;;;;;;;;;;;;;;;11.71;100.00;99861.53;299536;32;2126;-77
2023/10/18 00:23:44;;;;;;;;;;;;;;;11.72;100.00;99860.59;297617;32;2788;-77
2023/10/18 00:23:54;;;;;;;;;;;;;;;11.71;100.00;99868.53;297657;32;4136;-77
2023/10/18 00:24:04;;;;;;;;;;;;;;;11.72;100.00;99867.63;299221;33;746;-77
2023/10/18 00:24:15;;;;;;;;;;;;;;;11.70;100.00;99864.25;292618;33;4488;-77
2023/10/18 00:24:25;;;;;;;;;;;;;;;11.69;100.00;99865.16;289290;33;4594;-78
2023/10/18 00:24:36;;;;;;;;;;;;;;;11.70;100.00;99861.63;289287;34;1342;-78
2023/10/18 00:24:47;;;;;;;;;;;;;;;11.69;100.00;99865.16;290092;33;4776;-78
2023/10/18 00:24:57;;;;;;;;;;;;;;;11.70;100.00;99859.00;288562;34;4116;-78
2023/10/18 00:25:08;;;;;;;;;;;;;;;11.69;100.00;99859.91;285770;34;3115;-77
2023/10/18 00:25:21;;;;;;;;;;;;;;;11.70;100.00;99856.38;283643;34;5586;-77
2023/10/18 00:25:32;;;;;;;;;;;;;;;11.71;100.00;99858.03;281963;34;3407;-77
2023/10/18 00:25:42;;;;;;;;;;;;;;;11.70;100.00;99853.75;280052;34;5687;-77
2023/10/18 00:25:52;;;;;;;;;;;;;;;11.69;100.00;99860.75;278891;35;1814;-77
2023/10/18 00:26:03;;;;;;;;;;;;;;;11.69;100.00;99854.66;274203;35;1218;-77
2023/10/18 00:26:14;;;;;;;;;;;;;;;11.70;100.00;99853.75;272528;35;5620;-77
2023/10/18 00:26:24;;;;;;;;;;;;;;;11.71;100.00;99852.81;273341;35;5792;-77
2023/10/18 00:26:34;;;;;;;;;;;;;;;11.70;100.00;99853.75;279313;35;881;-77
2023/10/18 00:26:45;;;;;;;;;;;;;;;11.69;100.00;99855.53;278339;35;6956;-77
2023/10/18 00:26:56;;;;;;;;;;;;;;;11.69;100.00;99852.03;277512;35;7373;-77
2023/10/18 00:27:09;;;;;;;;;;;;;;;11.68;99.87;99856.44;278381;35;1096;-77
2023/10/18 00:27:19;;;;;;;;;;;;;;;11.65;99.89;99854.78;278188;35;1299;-77
2023/10/18 00:27:29;;;;;;;;;;;;;;;11.64;99.77;99850.47;276131;35;6445;-77
2023/10/18 00:27:41;;;;;;;;;;;;;;;11.65;99.69;99854.78;273218;35;4402;-77
2023/10/18 00:27:51;;;;;;;;;;;;;;;11.68;99.54;99856.44;274832;36;1341;-77
2023/10/18 00:28:01;;;;;;;;;;;;;;;11.69;99.57;99852.91;270232;35;5141;-77
2023/10/18 00:28:11;;;;;;;;;;;;;;;11.68;99.34;99851.19;269466;36;7074;-77
2023/10/18 00:28:22;;;;;;;;;;;;;;;11.68;99.42;99852.97;269641;36;1259;-77
2023/10/18 00:30:18;;;;;;;;;;;;;;;11.66;99.91;99846.00;2495697;27;19937;-77
2023/10/18 00:30:29;;;;;;;;;;;;;;;11.66;99.83;99847.78;354564;27;885;-77
2023/10/18 00:30:40;;;;;;;;;;;;;;;11.65;99.69;99841.69;353399;28;921;-77
2023/10/18 00:30:50;;;;;;;;;;;;;;;11.68;99.74;99845.09;353312;28;1017;-77
2023/10/18 00:31:10;;;;;;;;;;;;;;;11.69;99.91;99844.19;350928;28;1218;-77
2023/10/18 00:31:21;;;;;;;;;;;;;;;11.69;99.69;99844.19;349084;28;935;-77
2023/10/18 00:31:31;;;;;;;;;;;;;;;11.67;99.91;99841.63;347667;28;800;-77
2023/10/18 00:31:41;;;;;;;;;;;;;;;11.68;99.93;99845.94;348934;28;1231;-77
2023/10/18 00:31:52;;;;;;;;;;;;;;;11.68;99.69;99852.97;349049;28;843;-77
2023/10/18 00:32:03;;;;;;;;;;;;;;;11.67;99.96;99841.63;347420;28;1241;-77
2023/10/18 00:32:16;;;;;;;;;;;;;;;11.68;99.83;99842.47;348934;28;843;-77
2023/10/18 00:32:26;;;;;;;;;;;;;;;11.68;99.94;99839.84;348953;28;835;-77
2023/10/18 00:32:36;;;;;;;;;;;;;;;11.68;99.76;99842.47;347615;28;1271;-77
2023/10/18 00:32:46;;;;;;;;;;;;;;;11.68;99.72;99838.09;347467;28;1269;-77
2023/10/18 00:32:57;;;;;;;;;;;;;;;11.68;99.89;99842.47;347596;28;792;-77
2023/10/18 00:33:07;;;;;;;;;;;;;;;11.69;99.94;99836.31;347653;28;1409;-77
2023/10/18 00:33:19;;;;;;;;;;;;;;;11.68;99.91;99838.09;346444;28;812;-77
2023/10/18 00:33:29;;;;;;;;;;;;;;;11.68;99.75;99835.47;344869;28;1399;-77
2023/10/18 00:33:39;;;;;;;;;;;;;;;11.68;99.90;99842.47;346188;28;1172;-77
2023/10/18 00:33:49;;;;;;;;;;;;;;;11.69;99.62;99844.19;346099;28;1224;-77
2023/10/18 00:34:00;;;;;;;;;;;;;;;11.69;99.76;99842.41;347544;28;1239;-76
2023/10/18 00:34:12;;;;;;;;;;;;;;;11.69;99.63;99839.78;346894;28;1303;-77
2023/10/18 00:34:22;;;;;;;;;;;;;;;11.68;99.55;99838.09;345141;28;3141;-76
2023/10/18 00:34:32;;;;;;;;;;;;;;;11.69;99.66;99841.56;345056;28;5419;-77
2023/10/18 00:34:43;;;;;;;;;;;;;;;11.68;99.61;99842.47;347213;28;3388;-77
2023/10/18 00:34:54;;;;;;;;;;;;;;;11.68;99.53;99838.09;346113;28;1376;-77
2023/10/18 00:35:12;;;;;;;;;;;;;;;11.68;99.53;99832.84;344899;28;844;-77
2023/10/18 00:35:29;;;;;;;;;;;;;;;11.68;99.21;99843.31;344254;28;1273;-77
2023/10/18 00:35:41;;;;;;;;;;;;;;;11.68;99.46;99842.47;342766;28;1295;-77
2023/10/18 00:35:57;;;;;;;;;;;;;;;11.66;99.26;99835.53;347431;28;1356;-77
2023/10/18 00:36:10;;;;;;;;;;;;;;;11.66;99.12;99837.28;345355;28;1150;-77
2023/10/18 00:36:20;;;;;;;;;;;;;;;11.64;99.07;99837.34;341185;28;1423;-77
2023/10/18 00:36:33;;;;;;;;;;;;;;;11.65;99.15;99838.22;340967;29;904;-77
2023/10/18 00:36:45;;;;;;;;;;;;;;;11.65;99.21;99839.06;343021;28;1372;-77
2023/10/18 00:36:56;;;;;;;;;;;;;;;11.64;99.37;99837.34;342146;28;1147;-77
2023/10/18 00:37:06;;;;;;;;;;;;;;;11.64;99.26;99842.59;340870;29;930;-77
2023/10/18 00:37:17;;;;;;;;;;;;;;;11.64;99.44;99842.59;339752;29;883;-77
2023/10/18 00:37:27;;;;;;;;;;;;;;;11.64;99.35;99831.25;340937;29;1369;-77
2023/10/18 00:37:38;;;;;;;;;;;;;;;11.64;99.39;99837.34;344016;28;768;-77
2023/10/18 00:37:55;;;;;;;;;;;;;;;11.64;99.55;99837.34;344230;28;1087;-77
2023/10/18 00:38:11;;;;;;;;;;;;;;;11.65;99.53;99836.44;343416;28;1335;-77
2023/10/18 00:38:24;;;;;;;;;;;;;;;11.65;99.23;99833.81;339838;29;2128;-77
2023/10/18 00:38:34;;;;;;;;;;;;;;;11.68;99.21;99842.47;335735;29;1331;-77
2023/10/18 00:38:44;;;;;;;;;;;;;;;11.68;99.23;99834.63;334357;29;1342;-77
2023/10/18 00:38:55;;;;;;;;;;;;;;;11.68;99.38;99839.84;334709;29;1685;-77
2023/10/18 00:39:20;;;;;;;;;;;;;;;11.66;99.25;99834.66;334023;29;1978;-77
2023/10/18 00:39:32;;;;;;;;;;;;;;;11.68;99.31;99845.09;331958;29;891;-77
2023/10/18 00:39:43;;;;;;;;;;;;;;;11.66;99.42;99839.91;331782;29;1345;-77
2023/10/18 00:39:53;;;;;;;;;;;;;;;11.64;99.62;99837.34;330752;29;980;-77
2023/10/18 00:40:07;;;;;;;;;;;;;;;11.64;99.71;99837.34;328197;30;1391;-77
2023/10/18 00:40:40;;;;;;;;;;;;;;;11.67;99.83;99839.00;321837;30;1819;-77
2023/10/18 00:40:51;;;;;;;;;;;;;;;11.66;99.85;99835.53;321903;30;1497;-77
2023/10/18 00:41:05;;;;;;;;;;;;;;;11.65;99.99;99833.81;323268;30;836;-77
2023/10/18 00:41:32;;;;;;;;;;;;;;;11.66;100.00;99835.53;322220;30;848;-77
2023/10/18 00:41:44;;;;;;;;;;;;;;;11.68;100.00;99838.09;319590;30;1559;-77
2023/10/18 00:41:55;;;;;;;;;;;;;;;11.68;99.99;99835.47;319781;30;1221;-77
2023/10/18 00:42:25;;;;;;;;;;;;;;;11.69;100.00;99833.69;317281;30;1962;-77
2023/10/18 00:42:36;;;;;;;;;;;;;;;11.69;100.00;99836.31;315683;31;2594;-77
2023/10/18 00:42:46;;;;;;;;;;;;;;;11.69;100.00;99833.69;314178;31;1263;-77
2023/10/18 00:43:14;;;;;;;;;;;;;;;11.68;100.00;99843.31;310944;31;2565;-77
2023/10/18 00:43:26;;;;;;;;;;;;;;;11.62;100.00;99836.56;310877;31;2588;-77
2023/10/18 00:43:36;;;;;;;;;;;;;;;11.60;100.00;99833.16;310348;31;3038;-77
2023/10/18 00:43:47;;;;;;;;;;;;;;;11.60;100.00;99825.28;309812;31;3386;-77
2023/10/18 00:43:57;;;;;;;;;;;;;;;11.61;100.00;99840.09;309728;31;1683;-77
2023/10/18 00:44:12;;;;;;;;;;;;;;;11.62;100.00;99833.09;307507;31;1942;-77
2023/10/18 00:44:22;;;;;;;;;;;;;;;11.61;100.00;99832.25;306896;32;2631;-77
2023/10/18 00:44:35;;;;;;;;;;;;;;;11.62;100.00;99833.94;304339;32;1441;-77
2023/10/18 00:44:50;;;;;;;;;;;;;;;11.61;100.00;99829.63;301198;32;1166;-77
2023/10/18 00:45:03;;;;;;;;;;;;;;;11.62;100.00;99833.94;299018;33;1262;-77
2023/10/18 00:45:13;;;;;;;;;;;;;;;11.61;100.00;99836.63;295218;33;3737;-77
2023/10/18 00:45:23;;;;;;;;;;;;;;;11.62;100.00;99839.19;293721;33;3269;-77
2023/10/18 00:45:36;;;;;;;;;;;;;;;11.62;100.00;99839.19;291225;33;1208;-77
2023/10/18 00:45:47;;;;;;;;;;;;;;;11.61;100.00;99834.88;292148;33;1523;-77
2023/10/18 00:45:58;;;;;;;;;;;;;;;11.61;100.00;99834.88;293274;33;2416;-77
2023/10/18 00:46:08;;;;;;;;;;;;;;;11.60;100.00;99835.78;291265;33;1797;-77
2023/10/18 00:46:18;;;;;;;;;;;;;;;11.60;100.00;99835.78;290680;34;1309;-77
2023/10/18 00:46:29;;;;;;;;;;;;;;;11.60;100.00;99837.53;289645;33;2678;-77
2023/10/18 00:46:39;;;;;;;;;;;;;;;11.58;100.00;99842.84;286264;34;3699;-77
2023/10/18 00:46:50;;;;;;;;;;;;;;;11.57;100.00;99841.16;284767;34;5854;-77
2023/10/18 00:47:01;;;;;;;;;;;;;;;11.56;100.00;99833.34;281925;34;1404;-77
2023/10/18 00:47:13;;;;;;;;;;;;;;;11.56;100.00;99839.44;284201;34;4921;-77
2023/10/18 00:47:23;;;;;;;;;;;;;;;11.57;100.00;99837.66;287977;33;4715;-77
2023/10/18 00:47:34;;;;;;;;;;;;;;;11.58;100.00;99840.22;291180;34;1295;-77
2023/10/18 00:47:45;;;;;;;;;;;;;;;11.59;100.00;99828.84;285585;34;841;-77
2023/10/18 00:47:57;;;;;;;;;;;;;;;11.59;100.00;99833.22;284106;34;4025;-77
2023/10/18 00:48:08;;;;;;;;;;;;;;;11.58;100.00;99842.00;281247;35;3227;-76
2023/10/18 00:48:20;;;;;;;;;;;;;;;11.58;100.00;99837.59;282859;35;1294;-77
2023/10/18 00:48:30;;;;;;;;;;;;;;;11.59;100.00;99841.09;281363;35;1425;-77
2023/10/18 00:48:40;;;;;;;;;;;;;;;11.58;99.81;99842.84;281607;34;4088;-77
2023/10/18 00:48:51;;;;;;;;;;;;;;;11.59;99.89;99839.31;279158;34;6298;-77
2023/10/18 00:49:01;;;;;;;;;;;;;;;11.57;99.61;99835.91;279115;35;1268;-77
2023/10/18 00:49:14;;;;;;;;;;;;;;;11.57;99.60;99840.28;272813;35;7460;-77
2023/10/18 00:49:24;;;;;;;;;;;;;;;11.56;99.60;99839.44;271712;35;6990;-77
2023/10/18 00:49:35;;;;;;;;;;;;;;;11.55;99.66;99836.88;272081;36;7376;-77
2023/10/18 00:49:46;;;;;;;;;;;;;;;11.55;99.57;99832.50;272366;36;835;-78
2023/10/18 00:49:56;;;;;;;;;;;;;;;11.55;99.66;99837.72;271782;36;5862;-77
2023/10/18 00:50:06;;;;;;;;;;;;;;;11.55;99.46;99842.97;273549;36;5717;-77
2023/10/18 00:50:18;;;;;;;;;;;;;;;11.56;99.40;99834.19;273200;36;1296;-77
2023/10/18 00:50:29;;;;;;;;;;;;;;;11.57;99.36;99835.91;268828;36;4669;-77
2023/10/18 00:50:42;;;;;;;;;;;;;;;11.57;99.22;99841.16;268669;36;4794;-77
2023/10/18 00:50:54;;;;;;;;;;;;;;;11.57;99.29;99833.28;267472;36;5612;-77
2023/10/18 00:51:05;;;;;;;;;;;;;;;11.55;99.40;99840.34;263727;37;8228;-77
2023/10/18 00:51:19;;;;;;;;;;;;;;;11.54;99.48;99837.78;262523;37;1314;-78
2023/10/18 00:51:29;;;;;;;;;;;;;;;11.53;99.37;99834.31;260333;37;10169;-78
2023/10/18 00:51:41;;;;;;;;;;;;;;;11.51;99.40;99841.41;259954;37;10669;-77
2023/10/18 00:53:30;;;;;;;;;;;;;;;11.48;99.79;99841.53;2489846;27;20802;-78
2023/10/18 00:53:42;;;;;;;;;;;;;;;11.47;99.76;99828.47;349755;28;1481;-77
2023/10/18 00:53:52;;;;;;;;;;;;;;;11.47;99.98;99834.56;348898;28;1396;-77
2023/10/18 00:54:03;;;;;;;;;;;;;;;11.48;99.71;99838.91;347407;28;1294;-77
2023/10/18 00:54:14;;;;;;;;;;;;;;;11.50;99.92;99834.44;346359;28;1279;-77
2023/10/18 00:54:24;;;;;;;;;;;;;;;11.51;100.00;99836.16;347482;28;1298;-77
2023/10/18 00:54:34;;;;;;;;;;;;;;;11.51;99.82;99836.16;349138;28;808;-77
2023/10/18 00:54:45;;;;;;;;;;;;;;;11.53;100.00;99836.94;346085;28;1323;-78
2023/10/18 00:54:55;;;;;;;;;;;;;;;11.54;99.82;99830.78;346893;28;1224;-78
2023/10/18 00:55:08;;;;;;;;;;;;;;;11.54;99.78;99838.66;346039;28;1205;-78
2023/10/18 00:55:19;;;;;;;;;;;;;;;11.55;99.70;99831.63;349027;28;1076;-77
2023/10/18 00:55:30;;;;;;;;;;;;;;;11.56;99.74;99833.34;346157;28;1349;-77
2023/10/18 00:55:41;;;;;;;;;;;;;;;11.55;99.63;99835.13;342203;28;1350;-77
2023/10/18 00:55:57;;;;;;;;;;;;;;;11.55;99.79;99834.25;344936;28;913;-77
2023/10/18 00:56:09;;;;;;;;;;;;;;;11.55;99.57;99837.72;344783;28;1385;-77
2023/10/18 00:56:20;;;;;;;;;;;;;;;11.56;99.63;99836.81;346372;28;871;-77
2023/10/18 00:56:30;;;;;;;;;;;;;;;11.57;99.78;99832.44;347491;28;1274;-77
2023/10/18 00:56:41;;;;;;;;;;;;;;;11.56;99.65;99831.56;347554;28;1295;-77
2023/10/18 00:56:51;;;;;;;;;;;;;;;11.56;99.73;99836.81;346287;28;1326;-77
2023/10/18 00:57:01;;;;;;;;;;;;;;;11.55;99.93;99829.88;346824;28;1476;-77
2023/10/18 00:57:12;;;;;;;;;;;;;;;11.55;99.97;99836.88;346161;28;1323;-77
2023/10/18 00:57:25;;;;;;;;;;;;;;;11.54;99.91;99833.41;346638;28;1291;-77
2023/10/18 00:57:37;;;;;;;;;;;;;;;11.54;99.87;99830.78;348169;28;1281;-77
2023/10/18 00:57:47;;;;;;;;;;;;;;;11.53;99.98;99834.31;347997;28;1471;-77
2023/10/18 00:57:58;;;;;;;;;;;;;;;11.53;99.86;99836.09;346222;28;1208;-78
2023/10/18 00:58:08;;;;;;;;;;;;;;;11.54;99.81;99833.41;343525;28;1232;-78
2023/10/18 00:58:21;;;;;;;;;;;;;;;11.52;100.00;99835.25;346372;28;1224;-78
2023/10/18 00:58:34;;;;;;;;;;;;;;;11.53;99.88;99834.31;343786;28;871;-78
2023/10/18 00:58:47;;;;;;;;;;;;;;;11.53;99.89;99839.56;344750;28;1231;-77
2023/10/18 00:58:59;;;;;;;;;;;;;;;11.54;99.88;99836.03;344764;28;1447;-77
2023/10/18 00:59:18;;;;;;;;;;;;;;;11.56;99.91;99838.59;344825;28;832;-77
2023/10/18 00:59:29;;;;;;;;;;;;;;;11.57;99.86;99835.91;344797;28;1460;-78
2023/10/18 00:59:40;;;;;;;;;;;;;;;11.57;99.76;99838.53;343418;28;828;-78
2023/10/18 00:59:52;;;;;;;;;;;;;;;11.56;100.00;99834.19;343890;28;1354;-78
2023/10/18 01:00:09;;;;;;;;;;;;;;;11.57;100.00;99835.91;340770;28;1249;-78
2023/10/18 01:00:19;;;;;;;;;;;;;;;11.56;100.00;99831.56;343586;28;955;-78
2023/10/18 01:00:30;;;;;;;;;;;;;;;11.56;100.00;99834.19;343163;28;1351;-77
2023/10/18 01:00:40;;;;;;;;;;;;;;;11.57;100.00;99830.66;345017;28;1420;-77
2023/10/18 01:00:51;;;;;;;;;;;;;;;11.58;99.82;99836.75;344814;28;1360;-77
2023/10/18 01:01:09;;;;;;;;;;;;;;;11.59;100.00;99836.69;343153;28;1240;-77
2023/10/18 01:01:20;;;;;;;;;;;;;;;11.60;100.00;99833.16;342945;28;1110;-77
2023/10/18 01:01:31;;;;;;;;;;;;;;;11.62;100.00;99835.72;339141;29;1251;-77
2023/10/18 01:01:43;;;;;;;;;;;;;;;11.62;100.00;99835.72;337052;29;1325;-78
2023/10/18 01:02:00;;;;;;;;;;;;;;;11.62;100.00;99839.19;338575;29;1259;-77
2023/10/18 01:02:18;;;;;;;;;;;;;;;11.62;100.00;99833.09;337186;29;4993;-77
2023/10/18 01:02:29;;;;;;;;;;;;;;;11.63;100.00;99835.66;334242;29;5941;-78
2023/10/18 01:02:43;;;;;;;;;;;;;;;11.63;100.00;99835.66;336658;29;5820;-78
2023/10/18 01:02:57;;;;;;;;;;;;;;;11.61;100.00;99832.25;338390;29;1214;-77
2023/10/18 01:03:18;;;;;;;;;;;;;;;11.60;100.00;99830.53;335301;29;1367;-78
2023/10/18 01:03:29;;;;;;;;;;;;;;;11.59;100.00;99831.44;333216;29;1248;-78
2023/10/18 01:03:41;;;;;;;;;;;;;;;11.57;100.00;99833.28;328363;29;1878;-78
2023/10/18 01:03:52;;;;;;;;;;;;;;;11.57;100.00;99838.53;327793;29;1371;-78
2023/10/18 01:04:05;;;;;;;;;;;;;;;11.59;100.00;99836.69;325510;30;1724;-78
2023/10/18 01:04:15;;;;;;;;;;;;;;;11.59;100.00;99833.22;328645;30;1290;-78
2023/10/18 01:04:28;;;;;;;;;;;;;;;11.59;100.00;99835.84;324005;30;1271;-78
2023/10/18 01:04:40;;;;;;;;;;;;;;;11.59;100.00;99834.06;322135;30;1486;-78
2023/10/18 01:04:52;;;;;;;;;;;;;;;11.59;100.00;99839.31;325086;30;887;-78
2023/10/18 01:05:09;;;;;;;;;;;;;;;11.59;100.00;99833.22;325561;30;1383;-78
2023/10/18 01:05:20;;;;;;;;;;;;;;;11.57;100.00;99830.66;322427;30;1910;-77
2023/10/18 01:05:30;;;;;;;;;;;;;;;11.57;100.00;99833.28;324116;30;1360;-78
2023/10/18 01:05:58;;;;;;;;;;;;;;;11.58;100.00;99836.75;318760;31;829;-78
2023/10/18 01:06:09;;;;;;;;;;;;;;;11.57;100.00;99833.28;313747;31;2285;-78
2023/10/18 01:06:21;;;;;;;;;;;;;;;11.57;100.00;99835.91;313192;31;2154;-78
2023/10/18 01:06:31;;;;;;;;;;;;;;;11.55;100.00;99829.88;311603;31;2206;-77
2023/10/18 01:06:44;;;;;;;;;;;;;;;11.59;100.00;99833.22;311916;31;862;-78
2023/10/18 01:06:57;;;;;;;;;;;;;;;11.58;100.00;99832.38;312568;31;1746;-78
2023/10/18 01:07:15;;;;;;;;;;;;;;;11.58;100.00;99832.38;310132;31;1425;-77
2023/10/18 01:07:25;;;;;;;;;;;;;;;11.57;100.00;99838.53;308131;31;1831;-77
2023/10/18 01:07:35;;;;;;;;;;;;;;;11.55;99.95;99832.50;306911;32;2399;-78
2023/10/18 01:07:53;;;;;;;;;;;;;;;11.55;100.00;99835.13;304081;32;2709;-75
2023/10/18 01:08:06;;;;;;;;;;;;;;;11.55;100.00;99832.50;303667;32;3006;-76
2023/10/18 01:08:21;;;;;;;;;;;;;;;11.54;100.00;99830.78;303103;32;3134;-77
2023/10/18 01:08:31;;;;;;;;;;;;;;;11.55;100.00;99831.63;304726;32;2823;-77
2023/10/18 01:08:42;;;;;;;;;;;;;;;11.55;100.00;99832.50;306461;32;812;-77
2023/10/18 01:08:52;;;;;;;;;;;;;;;11.55;100.00;99835.13;302408;32;2811;-76
2023/10/18 01:09:03;;;;;;;;;;;;;;;11.54;100.00;99829.94;303314;32;2401;-76
2023/10/18 01:09:16;;;;;;;;;;;;;;;11.56;100.00;99828.09;303399;32;766;-77
2023/10/18 01:09:26;;;;;;;;;;;;;;;11.55;100.00;99827.25;300585;32;1397;-77